Time;durP1;ratioP1;P1;durP2;ratioP2;P2;SDS_P1;SDS_P2;PMS_P1;PMS_P2;Temp;Humidity;BMP_temperature;BMP_pressure;BME280_temperature;BME280_humidity;BME280_pressure;Samples;Min_cycle;Max_cycle;Signal;HPM_P1;HPM_P2
2021/04/10 00:00:08;;;;;;;4.00;2.80;;;13.20;81.50;;;;;;5000123;28;20655;-67
2021/04/10 00:02:34;;;;;;;4.37;3.67;;;13.10;82.00;;;;;;5050919;28;20212;-65
2021/04/10 00:05:00;;;;;;;5.60;3.37;;;13.10;83.20;;;;;;5040686;28;20485;-66
2021/04/10 00:07:26;;;;;;;3.77;3.20;;;13.10;83.10;;;;;;5012186;28;20224;-65
2021/04/10 00:09:51;;;;;;;3.17;2.87;;;13.10;82.50;;;;;;5034164;28;20300;-65
2021/04/10 00:12:17;;;;;;;3.90;3.47;;;13.10;82.60;;;;;;5032942;28;20220;-67
2021/04/10 00:14:43;;;;;;;8.13;3.80;;;13.10;82.90;;;;;;5017181;28;20598;-67
2021/04/10 00:17:08;;;;;;;5.70;3.90;;;13.10;83.60;;;;;;5049580;28;20226;-66
2021/04/10 00:19:34;;;;;;;4.30;3.70;;;13.00;84.90;;;;;;5034560;28;20230;-66
2021/04/10 00:22:00;;;;;;;5.50;3.73;;;13.00;83.80;;;;;;5049591;28;20227;-65
2021/04/10 00:24:26;;;;;;;4.67;3.00;;;13.00;83.90;;;;;;5033707;28;20508;-65
2021/04/10 00:26:52;;;;;;;5.43;4.17;;;13.00;83.90;;;;;;5016891;28;20216;-67
2021/04/10 00:29:17;;;;;;;6.10;3.60;;;13.00;84.10;;;;;;5032306;28;20234;-66
2021/04/10 00:31:43;;;;;;;4.63;3.40;;;13.00;84.50;;;;;;5030598;28;20221;-67
2021/04/10 00:34:09;;;;;;;6.30;3.00;;;12.90;84.70;;;;;;5006793;28;20224;-65
2021/04/10 00:36:34;;;;;;;2.63;2.43;;;12.90;84.50;;;;;;5032099;28;20323;-65
2021/04/10 00:39:00;;;;;;;3.80;3.50;;;12.90;84.80;;;;;;5012831;28;20239;-68
2021/04/10 00:41:26;;;;;;;3.50;3.20;;;12.80;85.80;;;;;;5026406;28;20707;-67
2021/04/10 00:43:51;;;;;;;4.17;3.17;;;12.80;85.30;;;;;;5017109;28;20733;-66
2021/04/10 00:46:17;;;;;;;6.57;3.73;;;12.80;85.00;;;;;;5032513;28;20227;-66
2021/04/10 00:48:44;;;;;;;3.80;2.90;;;12.80;84.80;;;;;;5059127;28;20294;-66
2021/04/10 00:51:10;;;;;;;4.50;2.90;;;12.80;85.80;;;;;;5032197;28;20898;-67
2021/04/10 00:53:37;;;;;;;3.00;2.80;;;12.80;88.30;;;;;;5016654;28;20598;-68
2021/04/10 00:56:05;;;;;;;4.23;2.77;;;12.80;87.80;;;;;;5065876;28;20489;-67
2021/04/10 00:58:32;;;;;;;3.57;3.27;;;12.80;88.50;;;;;;5016812;28;20446;-67
2021/04/10 01:00:59;;;;;;;4.07;2.87;;;12.80;87.70;;;;;;5024487;28;20454;-69
2021/04/10 01:03:25;;;;;;;3.90;2.87;;;12.80;87.90;;;;;;5041149;28;20450;-68
2021/04/10 01:05:51;;;;;;;4.93;2.90;;;12.80;87.50;;;;;;5033047;28;20534;-69
2021/04/10 01:08:17;;;;;;;3.27;2.50;;;12.80;88.70;;;;;;5032648;28;21240;-69
2021/04/10 01:10:42;;;;;;;4.03;3.20;;;12.80;89.80;;;;;;5032938;28;20679;-68
2021/04/10 01:13:14;;;;;;;3.67;3.37;;;12.70;90.10;;;;;;5032453;28;20220;-68
2021/04/10 01:15:53;;;;;;;3.20;2.77;;;12.70;90.40;;;;;;5049185;28;20533;-68
2021/04/10 01:18:29;;;;;;;4.00;3.70;;;12.70;90.50;;;;;;5052627;28;20457;-68
2021/04/10 01:21:10;;;;;;;3.73;3.03;;;12.70;90.90;;;;;;5026182;28;21004;-68
2021/04/10 01:23:45;;;;;;;3.30;2.37;;;12.70;90.50;;;;;;5031515;28;20465;-69
2021/04/10 01:26:46;;;;;;;3.33;2.60;;;12.70;90.60;;;;;;5048753;28;20540;-68
2021/04/10 01:29:16;;;;;;;3.70;3.10;;;12.70;91.30;;;;;;4971162;28;20457;-68
2021/04/10 01:31:45;;;;;;;2.90;2.70;;;12.60;91.80;;;;;;5011556;28;20812;-70
2021/04/10 01:34:17;;;;;;;4.00;3.00;;;12.50;92.20;;;;;;5031938;28;20565;-68
2021/04/10 01:36:44;;;;;;;3.60;3.23;;;12.50;92.40;;;;;;5031603;28;20454;-69
2021/04/10 01:39:13;;;;;;;2.87;2.60;;;12.50;92.50;;;;;;5031463;28;20451;-69
2021/04/10 01:41:46;;;;;;;3.60;3.10;;;12.40;92.70;;;;;;5032868;28;20459;-68
2021/04/10 01:44:16;;;;;;;3.57;2.70;;;12.40;93.60;;;;;;5031856;28;20546;-68
2021/04/10 01:46:43;;;;;;;6.93;2.97;;;12.40;92.60;;;;;;5036132;28;20517;-69
2021/04/10 01:49:09;;;;;;;5.83;2.93;;;12.50;92.60;;;;;;5042920;28;20448;-69
2021/04/10 01:51:37;;;;;;;3.03;2.73;;;12.50;92.80;;;;;;5012998;28;20996;-67
2021/04/10 01:54:04;;;;;;;5.53;3.90;;;12.50;93.40;;;;;;5031991;28;20458;-68
2021/04/10 01:56:32;;;;;;;3.30;3.00;;;12.50;92.50;;;;;;5032298;28;20993;-68
2021/04/10 01:58:59;;;;;;;3.53;2.90;;;12.50;92.30;;;;;;5047952;28;20938;-68
2021/04/10 02:01:49;;;;;;;3.00;2.37;;;12.60;92.70;;;;;;5035040;28;20469;-69
2021/04/10 02:04:17;;;;;;;2.80;2.60;;;12.60;92.10;;;;;;5048141;28;20462;-69
2021/04/10 02:06:45;;;;;;;5.80;3.27;;;12.50;92.60;;;;;;5032273;28;20981;-69
2021/04/10 02:09:13;;;;;;;2.80;2.60;;;12.50;92.40;;;;;;5030892;28;20459;-70
2021/04/10 02:11:49;;;;;;;2.60;2.40;;;12.60;92.30;;;;;;5032889;28;20542;-68
2021/04/10 02:14:26;;;;;;;3.20;2.63;;;12.50;92.20;;;;;;5032995;28;20465;-70
2021/04/10 02:16:53;;;;;;;4.40;3.00;;;12.60;92.30;;;;;;5028779;28;20975;-68
2021/04/10 02:19:26;;;;;;;3.90;3.10;;;12.60;92.30;;;;;;5020745;28;20458;-69
2021/04/10 02:22:08;;;;;;;3.50;2.57;;;12.50;92.30;;;;;;5048003;28;20942;-68
2021/04/10 02:24:33;;;;;;;3.73;2.90;;;12.50;92.30;;;;;;5027961;28;20828;-69
2021/04/10 02:27:04;;;;;;;2.73;2.50;;;12.60;92.50;;;;;;5031799;28;20544;-68
2021/04/10 02:29:34;;;;;;;4.53;2.87;;;12.50;92.30;;;;;;5028631;28;20865;-68
2021/04/10 02:32:08;;;;;;;2.80;2.50;;;12.50;92.40;;;;;;5038231;28;20454;-69
2021/04/10 02:34:50;;;;;;;3.13;2.70;;;12.50;92.50;;;;;;5010182;28;20467;-68
2021/04/10 02:37:18;;;;;;;4.00;2.60;;;12.50;92.50;;;;;;5053659;28;25062;-68
2021/04/10 02:39:47;;;;;;;9.20;2.67;;;12.60;92.60;;;;;;5036272;28;20462;-68
2021/04/10 02:42:16;;;;;;;3.83;3.17;;;12.50;92.70;;;;;;5015397;28;20554;-67
2021/04/10 02:44:49;;;;;;;2.67;2.30;;;12.50;92.90;;;;;;5051774;28;20461;-68
2021/04/10 02:47:21;;;;;;;3.53;2.93;;;12.50;92.90;;;;;;5035988;28;20806;-69
2021/04/10 02:49:52;;;;;;;4.50;2.97;;;12.50;93.10;;;;;;5022532;28;20442;-68
2021/04/10 02:52:31;;;;;;;4.00;2.73;;;12.50;93.30;;;;;;5039291;28;20452;-68
2021/04/10 02:55:01;;;;;;;4.00;2.80;;;12.50;93.40;;;;;;5036759;28;20489;-68
2021/04/10 02:57:28;;;;;;;5.70;2.80;;;12.50;93.00;;;;;;5035001;28;20449;-69
2021/04/10 02:59:58;;;;;;;3.97;3.13;;;12.50;93.10;;;;;;5035558;28;20499;-69
2021/04/10 03:02:24;;;;;;;3.63;3.17;;;12.50;93.20;;;;;;5051578;28;20458;-68
2021/04/10 03:04:54;;;;;;;2.50;2.20;;;12.50;93.30;;;;;;5052369;28;20458;-68
2021/04/10 03:07:22;;;;;;;3.93;3.00;;;12.50;93.30;;;;;;5029688;28;21016;-68
2021/04/10 03:09:49;;;;;;;3.17;2.87;;;12.40;94.00;;;;;;5035011;28;20450;-68
2021/04/10 03:12:19;;;;;;;3.90;2.83;;;12.40;94.10;;;;;;5051854;28;20446;-69
2021/04/10 03:14:47;;;;;;;3.30;2.70;;;12.40;93.90;;;;;;5032060;28;20459;-68
2021/04/10 03:17:17;;;;;;;2.70;2.50;;;12.40;94.10;;;;;;5020465;28;20455;-68
2021/04/10 03:19:45;;;;;;;3.30;2.57;;;12.40;94.20;;;;;;5051623;28;20458;-69
2021/04/10 03:22:23;;;;;;;2.43;1.93;;;12.50;94.00;;;;;;5026611;28;21007;-68
2021/04/10 03:24:51;;;;;;;2.80;2.60;;;12.40;94.00;;;;;;5051983;28;20458;-68
2021/04/10 03:27:17;;;;;;;2.80;2.60;;;12.40;94.00;;;;;;5015065;28;20451;-69
2021/04/10 03:29:44;;;;;;;2.90;2.30;;;12.40;94.50;;;;;;4999209;28;20459;-68
2021/04/10 03:32:11;;;;;;;3.70;2.90;;;12.40;94.30;;;;;;5015166;28;20452;-68
2021/04/10 03:34:41;;;;;;;3.73;2.90;;;12.40;94.40;;;;;;5015909;28;20463;-69
2021/04/10 03:37:08;;;;;;;3.37;3.07;;;12.40;94.40;;;;;;5014844;28;20451;-69
2021/04/10 03:39:37;;;;;;;2.87;2.43;;;12.40;94.60;;;;;;4999174;28;20825;-69
2021/04/10 03:42:08;;;;;;;4.50;2.60;;;12.40;95.50;;;;;;5014995;28;20534;-68
2021/04/10 03:44:34;;;;;;;2.93;2.40;;;12.30;95.40;;;;;;5015526;28;20458;-68
2021/04/10 03:47:00;;;;;;;2.90;2.33;;;12.30;95.70;;;;;;5013844;28;20458;-69
2021/04/10 03:49:26;;;;;;;3.47;2.60;;;12.30;96.40;;;;;;5021322;28;20475;-68
2021/04/10 03:51:54;;;;;;;2.83;2.50;;;12.20;96.40;;;;;;5017115;28;20497;-68
2021/04/10 03:54:20;;;;;;;2.73;2.53;;;12.20;96.30;;;;;;5017238;28;20532;-70
2021/04/10 03:56:48;;;;;;;2.27;2.07;;;12.20;96.20;;;;;;5034900;28;21011;-69
2021/04/10 03:59:20;;;;;;;3.30;2.77;;;12.20;96.70;;;;;;5019060;28;20449;-69
2021/04/10 04:01:50;;;;;;;3.40;3.10;;;12.20;97.80;;;;;;5035344;28;20477;-68
2021/04/10 04:04:17;;;;;;;2.57;2.37;;;12.10;98.00;;;;;;5017839;28;20904;-67
2021/04/10 04:06:43;;;;;;;3.80;3.40;;;12.10;98.30;;;;;;5034646;28;20465;-69
2021/04/10 04:09:09;;;;;;;4.37;3.50;;;12.00;99.00;;;;;;5050179;28;20695;-68
2021/04/10 04:11:35;;;;;;;3.90;3.40;;;12.00;99.40;;;;;;5034552;28;20485;-69
2021/04/10 04:14:00;;;;;;;3.97;3.57;;;12.00;99.90;;;;;;5034059;28;20246;-68
2021/04/10 04:16:26;;;;;;;4.87;3.50;;;12.00;99.90;;;;;;5017928;28;20675;-68
2021/04/10 04:18:52;;;;;;;3.83;3.50;;;11.90;99.90;;;;;;5017541;28;20639;-68
2021/04/10 04:21:17;;;;;;;4.50;4.10;;;11.90;99.90;;;;;;5034099;28;20224;-69
2021/04/10 04:23:43;;;;;;;4.60;3.40;;;11.90;99.90;;;;;;5050322;28;20222;-67
2021/04/10 04:26:08;;;;;;;5.57;3.30;;;11.80;99.90;;;;;;5033691;28;20239;-68
2021/04/10 04:28:34;;;;;;;4.10;3.60;;;11.80;99.90;;;;;;5017538;28;20231;-67
2021/04/10 04:31:00;;;;;;;4.40;4.00;;;11.80;99.90;;;;;;5017236;28;20686;-68
2021/04/10 04:33:25;;;;;;;4.97;3.63;;;11.80;99.90;;;;;;5017569;28;20234;-67
2021/04/10 04:35:51;;;;;;;3.90;3.40;;;11.80;99.90;;;;;;5052172;28;20219;-67
2021/04/10 04:38:17;;;;;;;4.83;3.47;;;11.80;99.90;;;;;;5017217;28;20235;-67
2021/04/10 04:40:42;;;;;;;3.67;3.33;;;11.80;99.90;;;;;;5033841;28;20358;-67
2021/04/10 04:43:08;;;;;;;6.20;3.50;;;11.80;99.90;;;;;;5017233;28;20230;-67
2021/04/10 04:45:34;;;;;;;7.20;3.17;;;11.80;99.90;;;;;;5033864;28;20294;-67
2021/04/10 04:47:59;;;;;;;4.90;4.27;;;11.80;99.90;;;;;;5016882;28;20230;-68
2021/04/10 04:50:25;;;;;;;3.07;2.80;;;11.80;99.90;;;;;;5033391;28;20692;-68
2021/04/10 04:52:51;;;;;;;5.03;3.97;;;11.70;99.90;;;;;;5033873;28;20269;-68
2021/04/10 04:55:16;;;;;;;5.10;3.87;;;11.70;99.90;;;;;;5016843;28;20226;-67
2021/04/10 04:57:42;;;;;;;3.23;2.77;;;11.70;99.90;;;;;;5033523;28;20226;-67
2021/04/10 05:00:08;;;;;;;4.47;3.17;;;11.70;99.90;;;;;;5016773;28;20219;-68
2021/04/10 05:02:34;;;;;;;3.90;3.30;;;11.70;99.90;;;;;;5033627;28;20714;-67
2021/04/10 05:04:59;;;;;;;3.50;3.20;;;11.70;99.90;;;;;;5016763;28;20454;-67
2021/04/10 05:07:25;;;;;;;3.10;2.80;;;11.70;99.90;;;;;;5017151;28;20274;-66
2021/04/10 05:09:51;;;;;;;3.30;3.00;;;11.70;99.90;;;;;;5033442;28;20251;-67
2021/04/10 05:12:16;;;;;;;6.07;3.50;;;11.70;99.90;;;;;;5032895;28;20295;-67
2021/04/10 05:14:42;;;;;;;4.60;3.53;;;11.70;99.90;;;;;;5033424;28;20314;-66
2021/04/10 05:17:08;;;;;;;3.20;2.90;;;11.70;99.90;;;;;;5033279;28;20306;-68
2021/04/10 05:19:34;;;;;;;3.13;2.83;;;11.70;99.90;;;;;;5016584;28;20274;-67
2021/04/10 05:21:59;;;;;;;3.20;2.90;;;11.60;99.90;;;;;;5015347;28;20216;-67
2021/04/10 05:24:25;;;;;;;3.60;3.30;;;11.60;99.90;;;;;;5030107;28;20865;-69
2021/04/10 05:26:50;;;;;;;3.57;3.27;;;11.70;99.90;;;;;;5038459;28;20768;-67
2021/04/10 05:29:16;;;;;;;4.40;3.53;;;11.70;99.90;;;;;;5031722;28;20231;-67
2021/04/10 05:31:42;;;;;;;3.37;3.07;;;11.70;99.90;;;;;;4999944;28;20235;-67
2021/04/10 05:34:07;;;;;;;3.40;3.10;;;11.70;99.90;;;;;;5049159;28;20258;-67
2021/04/10 05:36:33;;;;;;;3.60;3.30;;;11.70;99.90;;;;;;5016522;28;20671;-67
2021/04/10 05:38:59;;;;;;;3.97;3.57;;;11.70;99.90;;;;;;5021074;28;20270;-67
2021/04/10 05:41:24;;;;;;;4.00;3.30;;;11.70;99.90;;;;;;5029352;28;20231;-67
2021/04/10 05:43:50;;;;;;;5.00;3.20;;;11.70;99.90;;;;;;5032889;28;20215;-68
2021/04/10 05:46:16;;;;;;;4.90;4.17;;;11.70;99.90;;;;;;5015402;28;20215;-70
2021/04/10 05:48:41;;;;;;;5.30;4.10;;;11.70;99.90;;;;;;5015647;28;20281;-67
2021/04/10 05:51:07;;;;;;;5.67;3.30;;;11.80;99.90;;;;;;5032297;28;20226;-67
2021/04/10 05:53:33;;;;;;;3.80;3.47;;;11.80;99.90;;;;;;5016116;28;20821;-67
2021/04/10 05:55:59;;;;;;;3.60;3.30;;;11.80;99.90;;;;;;5015899;28;20227;-67
2021/04/10 05:58:24;;;;;;;6.17;4.03;;;11.80;99.90;;;;;;5032301;28;20557;-68
2021/04/10 06:00:50;;;;;;;6.33;5.00;;;11.80;99.90;;;;;;5013704;28;20311;-67
2021/04/10 06:03:16;;;;;;;15.67;8.77;;;11.80;99.90;;;;;;5008226;28;20224;-68
2021/04/10 06:05:46;;;;;;;16.90;9.20;;;11.80;99.90;;;;;;5048571;28;20223;-68
2021/04/10 06:08:12;;;;;;;20.83;10.23;;;11.80;99.90;;;;;;5031985;28;20220;-68
2021/04/10 06:10:38;;;;;;;17.03;10.50;;;11.80;99.90;;;;;;5014262;28;20457;-67
2021/04/10 06:13:03;;;;;;;19.17;11.47;;;11.80;99.90;;;;;;5048578;28;20537;-67
2021/04/10 06:15:29;;;;;;;25.20;12.17;;;11.80;99.90;;;;;;5053073;28;20573;-68
2021/04/10 06:17:55;;;;;;;21.33;12.47;;;11.80;99.90;;;;;;5032027;28;20219;-67
2021/04/10 06:20:21;;;;;;;25.57;15.97;;;11.80;99.90;;;;;;5048419;28;20215;-67
2021/04/10 06:22:47;;;;;;;20.43;12.27;;;11.80;99.90;;;;;;5049006;28;20844;-68
2021/04/10 06:25:13;;;;;;;29.20;17.20;;;11.80;99.90;;;;;;5031068;28;20454;-68
2021/04/10 06:27:39;;;;;;;21.97;14.77;;;11.80;99.90;;;;;;5048541;28;20487;-67
2021/04/10 06:30:07;;;;;;;18.10;12.40;;;11.80;99.90;;;;;;5024079;28;20695;-67
2021/04/10 06:32:32;;;;;;;13.67;9.80;;;11.80;99.90;;;;;;5032275;28;20219;-68
2021/04/10 06:34:58;;;;;;;12.10;8.23;;;11.80;99.90;;;;;;5031770;28;20470;-68
2021/04/10 06:37:24;;;;;;;13.00;10.63;;;11.90;99.90;;;;;;5031680;28;20234;-68
2021/04/10 06:39:50;;;;;;;13.27;11.00;;;11.80;99.90;;;;;;5031997;28;20220;-67
2021/04/10 06:42:15;;;;;;;13.70;10.10;;;11.80;99.90;;;;;;5031870;28;20220;-67
2021/04/10 06:44:41;;;;;;;11.37;9.03;;;11.80;99.90;;;;;;5048731;28;20679;-68
2021/04/10 06:47:07;;;;;;;17.67;13.20;;;11.80;99.90;;;;;;5011454;28;20217;-67
2021/04/10 06:49:33;;;;;;;24.87;17.57;;;11.80;99.90;;;;;;5047987;28;20220;-69
2021/04/10 06:52:00;;;;;;;21.73;16.20;;;11.80;99.90;;;;;;5031710;28;20462;-67
2021/04/10 06:54:33;;;;;;;14.60;12.83;;;11.80;99.90;;;;;;5014914;28;20527;-67
2021/04/10 06:57:18;;;;;;;11.07;9.20;;;11.80;99.90;;;;;;5028155;28;20478;-67
2021/04/10 07:00:01;;;;;;;7.47;6.70;;;11.80;99.90;;;;;;5047978;28;20532;-67
2021/04/10 07:02:30;;;;;;;4.60;4.20;;;11.80;99.90;;;;;;5047508;28;20539;-67
2021/04/10 07:04:56;;;;;;;4.53;4.13;;;11.80;99.90;;;;;;5032003;28;20454;-69
2021/04/10 07:07:23;;;;;;;3.13;2.83;;;11.80;99.90;;;;;;5047389;28;20563;-67
2021/04/10 07:09:49;;;;;;;2.90;2.70;;;11.80;99.90;;;;;;5038581;28;20449;-67
2021/04/10 07:12:16;;;;;;;3.83;2.43;;;11.80;99.90;;;;;;5011099;28;20451;-67
2021/04/10 07:14:42;;;;;;;2.40;2.20;;;11.80;99.90;;;;;;5027503;28;20467;-67
2021/04/10 07:17:07;;;;;;;4.30;3.13;;;11.70;99.90;;;;;;5009431;28;20465;-67
2021/04/10 07:19:33;;;;;;;2.73;2.53;;;11.70;99.90;;;;;;5048075;28;20219;-68
2021/04/10 07:22:03;;;;;;;2.07;1.87;;;11.70;99.90;;;;;;5033419;28;20322;-67
2021/04/10 07:24:42;;;;;;;2.40;2.30;;;11.70;99.90;;;;;;5027448;28;20699;-67
2021/04/10 07:27:11;;;;;;;2.10;2.00;;;11.60;99.90;;;;;;5034659;28;20475;-68
2021/04/10 07:29:45;;;;;;;2.30;1.90;;;11.60;99.90;;;;;;5017404;28;20454;-67
2021/04/10 07:32:31;;;;;;;2.93;2.73;;;11.60;99.90;;;;;;5026168;28;20462;-67
2021/04/10 07:34:58;;;;;;;4.90;3.00;;;11.50;99.90;;;;;;5051279;28;20470;-67
2021/04/10 07:37:46;;;;;;;3.33;3.13;;;11.40;99.90;;;;;;5034204;28;20842;-69
2021/04/10 07:40:13;;;;;;;5.77;3.10;;;11.30;99.90;;;;;;5009549;28;20966;-69
2021/04/10 07:42:42;;;;;;;6.47;3.50;;;11.30;99.90;;;;;;5051972;28;20833;-67
2021/04/10 07:45:32;;;;;;;4.10;3.70;;;11.30;99.90;;;;;;5033198;28;21039;-67
2021/04/10 07:48:12;;;;;;;5.70;2.83;;;11.30;99.90;;;;;;5060261;28;20455;-67
2021/04/10 07:50:39;;;;;;;2.00;1.80;;;11.20;99.90;;;;;;5049569;28;20462;-68
2021/04/10 07:53:24;;;;;;;2.30;2.10;;;11.20;99.90;;;;;;5017462;28;20466;-67
2021/04/10 07:55:52;;;;;;;2.23;2.03;;;11.20;99.90;;;;;;5035365;28;20442;-67
2021/04/10 07:58:23;;;;;;;2.13;1.93;;;11.10;99.90;;;;;;5033953;28;20953;-68
2021/04/10 08:00:50;;;;;;;1.90;1.80;;;11.10;99.90;;;;;;5042607;28;20478;-67
2021/04/10 08:03:42;;;;;;;1.90;1.70;;;11.00;99.90;;;;;;5034139;28;20824;-67
2021/04/10 08:06:07;;;;;;;9.40;6.47;;;11.10;99.90;;;;;;5016341;28;20521;-68
2021/04/10 08:08:45;;;;;;;5.13;4.50;;;11.00;99.90;;;;;;5048029;28;20458;-67
2021/04/10 08:11:11;;;;;;;4.43;4.10;;;11.00;99.90;;;;;;5033449;28;20235;-67
2021/04/10 08:13:36;;;;;;;4.20;3.43;;;11.00;99.90;;;;;;5033714;28;20521;-67
2021/04/10 08:16:16;;;;;;;11.67;8.23;;;10.80;99.90;;;;;;5023311;28;20216;-68
2021/04/10 08:18:47;;;;;;;13.63;10.83;;;10.70;99.90;;;;;;5049325;28;20250;-68
2021/04/10 08:21:14;;;;;;;9.00;6.30;;;10.70;99.90;;;;;;5043086;28;20451;-68
2021/04/10 08:23:40;;;;;;;8.00;7.00;;;10.60;99.90;;;;;;5032499;28;20551;-68
2021/04/10 08:26:06;;;;;;;5.17;4.77;;;10.70;99.90;;;;;;5016380;28;21029;-68
2021/04/10 08:28:32;;;;;;;3.40;3.10;;;10.60;99.90;;;;;;5030483;28;20219;-69
2021/04/10 08:30:58;;;;;;;5.70;4.87;;;10.60;99.90;;;;;;5030950;28;20240;-67
2021/04/10 08:33:28;;;;;;;4.27;3.93;;;10.50;99.90;;;;;;5013174;28;20559;-69
2021/04/10 08:35:58;;;;;;;3.80;2.93;;;10.50;99.90;;;;;;5038731;28;20538;-69
2021/04/10 08:38:27;;;;;;;3.13;2.57;;;10.50;99.90;;;;;;5027813;28;21126;-68
2021/04/10 08:40:56;;;;;;;3.07;2.03;;;10.50;99.90;;;;;;5031904;28;20973;-67
2021/04/10 08:43:27;;;;;;;3.20;3.00;;;10.40;99.90;;;;;;5026431;28;20977;-68
2021/04/10 08:45:54;;;;;;;3.23;2.93;;;10.40;99.90;;;;;;5029823;28;20447;-67
2021/04/10 08:48:22;;;;;;;2.90;2.70;;;10.40;99.90;;;;;;5029525;28;21016;-68
2021/04/10 08:50:51;;;;;;;4.27;3.77;;;10.30;99.90;;;;;;5029583;28;20450;-67
2021/04/10 08:53:26;;;;;;;4.40;3.80;;;10.30;99.90;;;;;;5030095;28;20455;-67
2021/04/10 08:55:52;;;;;;;3.60;3.37;;;10.40;99.90;;;;;;5015508;28;20496;-67
2021/04/10 08:58:29;;;;;;;3.60;3.30;;;10.40;99.90;;;;;;5046861;28;20537;-67
2021/04/10 09:01:01;;;;;;;8.70;5.83;;;10.40;99.90;;;;;;5045306;28;20442;-68
2021/04/10 09:03:45;;;;;;;65.43;30.83;;;10.40;99.90;;;;;;5032194;28;20477;-68
2021/04/10 09:06:12;;;;;;;62.57;29.97;;;10.40;99.90;;;;;;5032792;28;20442;-67
2021/04/10 09:08:38;;;;;;;65.37;33.37;;;10.40;99.90;;;;;;5032077;28;20512;-68
2021/04/10 09:11:05;;;;;;;68.03;39.43;;;10.40;99.90;;;;;;5032103;28;20875;-68
2021/04/10 09:13:38;;;;;;;25.73;16.30;;;10.40;99.90;;;;;;5032871;28;20228;-68
2021/04/10 09:16:23;;;;;;;10.60;8.60;;;10.40;99.90;;;;;;5029914;28;20455;-68
2021/04/10 09:18:54;;;;;;;8.87;6.17;;;10.50;99.90;;;;;;5023670;28;20461;-68
2021/04/10 09:21:34;;;;;;;8.60;5.70;;;10.60;99.90;;;;;;5030629;28;20964;-68
2021/04/10 09:24:00;;;;;;;13.77;11.17;;;10.60;99.90;;;;;;5026566;28;20825;-68
2021/04/10 09:26:25;;;;;;;13.77;10.77;;;10.70;99.90;;;;;;5027821;28;20546;-69
2021/04/10 09:28:54;;;;;;;11.10;9.67;;;10.70;99.90;;;;;;5031471;28;20294;-68
2021/04/10 09:31:36;;;;;;;18.43;11.03;;;10.80;99.90;;;;;;5028478;28;20231;-68
2021/04/10 09:34:02;;;;;;;18.00;8.70;;;10.80;99.90;;;;;;5023275;28;20549;-68
2021/04/10 09:36:47;;;;;;;25.10;13.97;;;10.80;99.90;;;;;;5015394;28;21032;-68
2021/04/10 09:39:50;;;;;;;34.90;18.17;;;10.80;99.90;;;;;;5031742;28;20529;-68
2021/04/10 09:42:34;;;;;;;36.83;19.33;;;10.90;99.90;;;;;;5038821;28;20472;-70
2021/04/10 09:45:18;;;;;;;34.27;20.33;;;11.00;99.90;;;;;;5020981;28;20461;-68
2021/04/10 09:48:02;;;;;;;34.57;20.90;;;11.10;99.90;;;;;;5021620;28;20466;-68
2021/04/10 09:50:31;;;;;;;23.10;15.73;;;11.20;99.90;;;;;;5018307;28;20501;-68
2021/04/10 09:53:01;;;;;;;36.80;21.47;;;11.20;99.90;;;;;;5027868;28;20459;-69
2021/04/10 09:55:31;;;;;;;52.17;29.33;;;11.20;99.90;;;;;;5041887;28;20458;-68
2021/04/10 09:57:57;;;;;;;46.43;28.10;;;11.20;99.90;;;;;;5023915;28;20455;-68
2021/04/10 10:00:27;;;;;;;53.27;30.97;;;11.20;99.90;;;;;;5020852;28;20533;-69
2021/04/10 10:02:58;;;;;;;39.30;22.53;;;11.30;99.90;;;;;;5027070;28;20467;-70
2021/04/10 10:05:29;;;;;;;26.73;14.03;;;11.30;99.90;;;;;;5031361;28;20454;-68
2021/04/10 10:08:01;;;;;;;10.53;8.20;;;11.30;99.90;;;;;;5014253;28;20466;-69
2021/04/10 10:10:40;;;;;;;11.37;9.27;;;11.30;99.90;;;;;;5028533;28;20446;-68
2021/04/10 10:13:17;;;;;;;10.87;8.90;;;11.40;99.90;;;;;;5015086;28;20438;-68
2021/04/10 10:15:47;;;;;;;7.40;6.03;;;11.40;99.90;;;;;;5013877;28;20442;-68
2021/04/10 10:18:20;;;;;;;4.93;4.43;;;11.40;99.90;;;;;;5009751;28;20458;-68
2021/04/10 10:21:11;;;;;;;4.10;3.57;;;11.40;99.90;;;;;;5023585;28;20462;-70
2021/04/10 10:23:56;;;;;;;3.27;2.90;;;11.40;99.90;;;;;;5022117;28;20494;-69
2021/04/10 10:26:24;;;;;;;2.67;2.47;;;11.40;99.90;;;;;;5057459;28;20546;-69
2021/04/10 10:29:04;;;;;;;2.77;2.20;;;11.40;99.90;;;;;;5012456;28;20480;-69
2021/04/10 10:31:50;;;;;;;2.67;2.40;;;11.40;99.90;;;;;;5046665;28;20973;-68
2021/04/10 10:34:20;;;;;;;2.70;2.50;;;11.40;99.90;;;;;;5023544;28;20540;-69
2021/04/10 10:36:47;;;;;;;3.00;2.33;;;11.50;99.90;;;;;;5050748;28;20493;-69
2021/04/10 10:39:28;;;;;;;4.00;2.50;;;11.50;99.90;;;;;;5033871;28;20453;-69
2021/04/10 10:41:54;;;;;;;5.83;2.40;;;11.50;99.90;;;;;;5047667;28;20453;-70
2021/04/10 10:44:21;;;;;;;3.03;2.47;;;11.50;99.90;;;;;;5030755;28;20438;-69
2021/04/10 10:47:07;;;;;;;2.63;2.43;;;11.50;99.90;;;;;;5026207;28;20460;-68
2021/04/10 10:49:32;;;;;;;2.60;2.40;;;11.40;99.90;;;;;;5028009;28;20442;-68
2021/04/10 10:51:59;;;;;;;2.50;2.30;;;11.50;99.90;;;;;;5030715;28;20529;-68
2021/04/10 10:54:38;;;;;;;2.80;2.23;;;11.50;99.90;;;;;;5014710;28;20675;-68
2021/04/10 10:57:15;;;;;;;3.17;2.40;;;11.50;99.90;;;;;;5031334;28;20516;-68
2021/04/10 10:59:41;;;;;;;2.57;1.83;;;11.50;99.90;;;;;;5014917;28;20997;-69
2021/04/10 11:02:11;;;;;;;3.77;2.00;;;11.50;99.90;;;;;;5031844;28;20459;-68
2021/04/10 11:04:38;;;;;;;2.30;1.87;;;11.50;99.90;;;;;;5000116;28;20224;-69
2021/04/10 11:07:08;;;;;;;1.83;1.67;;;11.50;99.90;;;;;;5018591;28;20458;-68
2021/04/10 11:09:36;;;;;;;3.40;2.80;;;11.50;99.90;;;;;;5010791;28;20455;-68
2021/04/10 11:12:10;;;;;;;2.33;2.20;;;11.60;99.90;;;;;;5027790;28;20474;-70
2021/04/10 11:14:41;;;;;;;1.90;1.80;;;11.60;99.90;;;;;;5029079;28;20454;-68
2021/04/10 11:17:08;;;;;;;2.23;2.13;;;11.70;99.90;;;;;;5049803;28;20443;-68
2021/04/10 11:19:36;;;;;;;1.67;1.57;;;11.70;99.90;;;;;;5025374;28;20545;-69
2021/04/10 11:22:07;;;;;;;2.80;2.10;;;11.70;99.90;;;;;;5018861;28;20457;-68
2021/04/10 11:24:43;;;;;;;2.80;2.03;;;11.70;99.90;;;;;;5049393;28;20832;-68
2021/04/10 11:27:12;;;;;;;1.73;1.63;;;11.80;99.90;;;;;;5034253;28;20453;-68
2021/04/10 11:29:38;;;;;;;2.63;2.07;;;11.80;99.90;;;;;;5050729;28;20462;-69
2021/04/10 11:32:12;;;;;;;4.20;1.90;;;11.90;99.90;;;;;;5011179;28;20549;-70
2021/04/10 11:34:47;;;;;;;2.97;2.10;;;11.90;99.90;;;;;;5050930;28;20223;-68
2021/04/10 11:37:16;;;;;;;2.30;1.87;;;11.90;99.90;;;;;;5050089;28;20446;-68
2021/04/10 11:40:00;;;;;;;2.07;1.67;;;11.90;99.90;;;;;;5050314;28;20481;-68
2021/04/10 11:42:32;;;;;;;2.60;1.67;;;12.00;99.90;;;;;;5031286;28;20835;-69
2021/04/10 11:45:00;;;;;;;2.60;2.00;;;12.00;99.90;;;;;;5019087;28;20458;-69
2021/04/10 11:47:32;;;;;;;6.20;2.60;;;12.00;99.90;;;;;;5038183;28;20841;-68
2021/04/10 11:50:18;;;;;;;2.87;1.80;;;12.00;99.90;;;;;;5027931;28;20458;-68
2021/04/10 11:52:45;;;;;;;2.50;2.00;;;12.00;99.90;;;;;;5028687;28;20465;-69
2021/04/10 11:55:14;;;;;;;7.07;4.70;;;12.10;99.90;;;;;;5044498;28;20549;-68
2021/04/10 11:57:41;;;;;;;6.60;4.63;;;12.10;99.90;;;;;;5032383;28;21040;-68
2021/04/10 12:00:10;;;;;;;5.60;4.30;;;12.10;99.90;;;;;;5030855;28;20458;-68
2021/04/10 12:02:38;;;;;;;6.30;4.40;;;12.10;99.90;;;;;;5049523;28;20965;-69
2021/04/10 12:05:26;;;;;;;9.20;5.63;;;12.10;99.90;;;;;;5016565;28;20473;-68
2021/04/10 12:08:22;;;;;;;22.47;12.30;;;12.10;99.90;;;;;;5043642;28;20454;-68
2021/04/10 12:10:48;;;;;;;9.57;6.43;;;12.10;99.90;;;;;;5042321;28;20538;-68
2021/04/10 12:13:16;;;;;;;4.93;3.80;;;12.20;99.90;;;;;;5049251;28;20550;-68
2021/04/10 12:15:42;;;;;;;2.23;1.90;;;12.20;99.90;;;;;;5049982;28;20226;-68
2021/04/10 12:18:10;;;;;;;3.03;2.63;;;12.20;99.90;;;;;;5036367;28;20443;-68
2021/04/10 12:20:37;;;;;;;3.03;2.07;;;12.20;99.90;;;;;;5045519;28;20450;-68
2021/04/10 12:23:04;;;;;;;2.23;1.87;;;12.20;99.90;;;;;;5049302;28;20450;-69
2021/04/10 12:25:30;;;;;;;1.40;1.30;;;12.20;99.90;;;;;;5049471;28;20457;-68
2021/04/10 12:27:55;;;;;;;1.80;1.50;;;12.20;99.90;;;;;;5049996;28;20454;-68
2021/04/10 12:30:21;;;;;;;2.90;1.87;;;12.20;99.90;;;;;;5033239;28;20227;-68
2021/04/10 12:32:47;;;;;;;2.23;2.00;;;12.20;99.90;;;;;;5031201;28;20307;-68
2021/04/10 12:35:13;;;;;;;1.60;1.50;;;12.10;99.90;;;;;;5046844;28;20470;-68
2021/04/10 12:37:39;;;;;;;2.07;1.90;;;12.20;99.90;;;;;;5048086;28;20220;-68
2021/04/10 12:40:06;;;;;;;3.57;1.87;;;12.20;99.90;;;;;;5045670;28;20459;-68
2021/04/10 12:42:33;;;;;;;2.03;1.87;;;12.20;99.90;;;;;;5046673;28;20450;-69
2021/04/10 12:45:00;;;;;;;2.13;1.80;;;12.20;99.90;;;;;;5046406;28;21001;-68
2021/04/10 12:47:26;;;;;;;2.13;1.60;;;12.20;99.90;;;;;;5029318;28;20450;-68
2021/04/10 12:49:51;;;;;;;1.53;1.43;;;12.10;99.90;;;;;;5046679;28;20853;-68
2021/04/10 12:52:17;;;;;;;7.40;2.33;;;12.10;99.90;;;;;;5045662;28;20494;-68
2021/04/10 12:54:44;;;;;;;4.43;3.23;;;12.10;99.90;;;;;;5045570;28;20238;-68